Bellmore, Indiana
Current Conditions -  °F | °C
As of 7:55 PM on Wednesday 22 Oct 2014 (Local Time) from K4I7 Reporting Station
Clear Clear  
Wind Chill:   Ceiling: Unl
Heat Index:   Visibility: 10mi
Dew Point:   Wind: 0mph
Humidity: 76%   Direction: NA
Pressure: 30.26"   Gusts: NA
Location:  39.76°N, 87.11°W
Report Text: K4I7 222355Z AUTO 00000KT 10SM CLR 08/04 A3026 RMK AO2
Loading
Personal Weather Stations






























Interactive Weather Map
Tropical Storm Tracking
New forecast layout! Learn more

10-Day Weather Forecast

Advertisements
Track Severe Weather on mobile